createdAt,value
2022-10-11T00:00:00.127Z,67.16
2022-10-11T00:02:38.224Z,67.27
2022-10-11T00:05:17.002Z,66.98
2022-10-11T00:07:54.710Z,67.14
2022-10-11T00:10:35.125Z,67.26
2022-10-11T00:13:13.100Z,67.48
2022-10-11T00:15:50.900Z,67.03
2022-10-11T00:18:29.043Z,66.96
2022-10-11T00:21:10.413Z,67.15
2022-10-11T00:23:49.703Z,67.20
2022-10-11T00:26:28.550Z,66.98
2022-10-11T00:29:07.211Z,67.14
2022-10-11T00:31:45.845Z,66.86
2022-10-11T00:34:24.800Z,67.10
2022-10-11T00:37:03.211Z,66.84
2022-10-11T00:39:41.150Z,66.96
2022-10-11T00:42:19.326Z,66.97
2022-10-11T00:45:31.435Z,67.89
2022-10-11T00:48:18.687Z,67.13
2022-10-11T00:50:59.769Z,67.18
2022-10-11T00:53:38.733Z,66.66
2022-10-11T00:56:38.855Z,67.50
2022-10-11T00:59:23.256Z,67.10
2022-10-11T01:02:02.839Z,67.01
2022-10-11T01:04:42.796Z,67.17
2022-10-11T01:07:21.924Z,66.92
2022-10-11T01:09:59.910Z,67.09
2022-10-11T01:12:52.951Z,67.63
2022-10-11T01:15:45.817Z,67.55
2022-10-11T01:19:08.019Z,68.10
2022-10-11T01:22:21.598Z,67.90
2022-10-11T01:25:17.753Z,66.78
2022-10-11T01:28:10.469Z,67.77
2022-10-11T01:30:49.063Z,67.00
2022-10-11T01:33:43.811Z,67.59
2022-10-11T01:36:27.937Z,67.63
2022-10-11T01:39:26.154Z,68.01
2022-10-11T01:42:07.711Z,67.63
2022-10-11T01:44:49.157Z,67.56
2022-10-11T01:47:27.324Z,67.73
2022-10-11T01:50:08.117Z,67.46
2022-10-11T01:52:47.646Z,67.81
2022-10-11T01:55:39.503Z,67.81
2022-10-11T01:58:29.511Z,67.71
2022-10-11T02:01:26.056Z,68.06
2022-10-11T02:04:27.347Z,68.28
2022-10-11T02:07:09.334Z,67.58
2022-10-11T02:09:52.543Z,67.82
2022-10-11T02:12:44.659Z,67.64
2022-10-11T02:15:26.866Z,67.77
2022-10-11T02:18:10.143Z,68.51
2022-10-11T02:20:50.496Z,68.31
2022-10-11T02:23:42.559Z,68.74
2022-10-11T02:26:23.494Z,68.15
2022-10-11T02:29:05.943Z,68.53
2022-10-11T02:31:45.986Z,68.49
2022-10-11T02:34:27.709Z,68.77
2022-10-11T02:37:25.557Z,68.88
2022-10-11T02:40:25.575Z,69.25
2022-10-11T02:43:06.605Z,68.89
2022-10-11T02:45:51.086Z,69.13
2022-10-11T02:48:29.531Z,68.43
2022-10-11T02:51:13.404Z,69.40
2022-10-11T02:53:51.112Z,68.58
2022-10-11T02:56:28.063Z,68.83
2022-10-11T02:59:06.578Z,69.12
2022-10-11T03:01:44.944Z,68.99
2022-10-11T03:04:23.947Z,68.76
2022-10-11T03:07:02.159Z,69.04
2022-10-11T03:09:40.820Z,68.74
2022-10-11T03:12:18.597Z,68.71
2022-10-11T03:14:56.820Z,68.69
2022-10-11T03:17:36.876Z,68.97
2022-10-11T03:20:14.835Z,68.91
2022-10-11T03:22:53.016Z,69.19
2022-10-11T03:25:31.234Z,68.73
2022-10-11T03:28:09.506Z,69.12
2022-10-11T03:30:51.725Z,69.45
2022-10-11T03:33:30.646Z,68.73
2022-10-11T03:36:09.262Z,69.11
2022-10-11T03:38:47.061Z,68.86
2022-10-11T03:41:25.322Z,69.03
2022-10-11T03:44:03.760Z,69.09
2022-10-11T03:46:41.731Z,69.40
2022-10-11T03:49:20.046Z,68.97
2022-10-11T03:51:58.106Z,69.33
2022-10-11T03:54:36.519Z,69.30
2022-10-11T03:57:14.962Z,68.96
2022-10-11T03:59:52.730Z,69.05
2022-10-11T04:02:32.208Z,68.95
2022-10-11T04:05:12.780Z,69.56
2022-10-11T04:07:50.806Z,69.08
2022-10-11T04:10:28.803Z,69.40
2022-10-11T04:13:07.533Z,69.28
2022-10-11T04:15:45.202Z,68.98
2022-10-11T04:18:23.366Z,68.91
2022-10-11T04:21:01.596Z,69.31
2022-10-11T04:23:39.781Z,68.87
2022-10-11T04:26:17.982Z,69.02
2022-10-11T04:28:56.322Z,68.95
2022-10-11T04:31:34.391Z,69.02
2022-10-11T04:34:12.639Z,68.55
2022-10-11T04:36:50.804Z,68.73
2022-10-11T04:39:29.080Z,68.57
2022-10-11T04:42:07.247Z,68.45
2022-10-11T04:44:45.475Z,68.21
2022-10-11T04:47:24.647Z,68.21
2022-10-11T04:50:04.708Z,68.21
2022-10-11T04:52:43.791Z,67.61
2022-10-11T04:55:22.219Z,66.97
2022-10-11T04:58:01.024Z,66.35
2022-10-11T05:00:39.523Z,65.87
2022-10-11T05:03:17.841Z,64.91
2022-10-11T05:05:54.826Z,64.09
2022-10-11T05:08:33.864Z,63.64
2022-10-11T05:11:15.969Z,62.75
2022-10-11T05:13:53.874Z,61.94
2022-10-11T05:16:32.100Z,61.28
2022-10-11T05:19:10.540Z,60.28
2022-10-11T05:21:48.688Z,59.93
2022-10-11T05:24:26.666Z,59.35
2022-10-11T05:27:04.861Z,58.52
2022-10-11T05:29:43.578Z,58.12
2022-10-11T05:32:24.568Z,57.49
2022-10-11T05:35:05.064Z,56.64
2022-10-11T05:37:44.134Z,55.78
2022-10-11T05:40:22.230Z,55.10
2022-10-11T05:42:59.395Z,54.27
2022-10-11T05:45:42.157Z,53.31
2022-10-11T05:48:20.370Z,52.84
2022-10-11T05:51:03.384Z,51.42
2022-10-11T05:53:41.328Z,51.75
2022-10-11T05:56:24.286Z,50.98
2022-10-11T05:59:02.777Z,51.19
2022-10-11T06:01:40.848Z,50.71
2022-10-11T06:04:19.207Z,50.12
2022-10-11T06:06:57.647Z,49.51
2022-10-11T06:09:35.967Z,48.63
2022-10-11T06:12:13.524Z,47.20
2022-10-11T06:15:10.877Z,46.43
2022-10-11T06:18:05.772Z,45.36
2022-10-11T06:21:01.320Z,44.27
2022-10-11T06:23:59.985Z,43.19
2022-10-11T06:26:53.626Z,42.33
2022-10-11T06:29:49.891Z,41.38
2022-10-11T06:32:45.393Z,40.00
2022-10-11T06:35:40.495Z,39.35
2022-10-11T06:38:47.686Z,38.54
2022-10-11T06:41:43.459Z,37.80
2022-10-11T06:44:35.392Z,37.51
2022-10-11T06:47:27.307Z,36.89
2022-10-11T06:50:47.164Z,36.40
2022-10-11T06:53:19.803Z,37.13
2022-10-11T06:56:18.392Z,38.10
2022-10-11T06:59:16.392Z,39.60
2022-10-11T07:02:17.470Z,40.33
2022-10-11T07:05:10.787Z,41.08
2022-10-11T07:08:06.294Z,41.97
2022-10-11T07:11:06.224Z,42.47
2022-10-11T07:14:04.577Z,43.25
2022-10-11T07:17:05.760Z,43.25
2022-10-11T07:20:00.646Z,43.24
2022-10-11T07:23:01.898Z,43.64
2022-10-11T07:26:07.713Z,43.50
2022-10-11T07:28:59.797Z,43.04
2022-10-11T07:31:51.628Z,43.37
2022-10-11T07:34:42.810Z,43.25
2022-10-11T07:37:38.077Z,42.90
2022-10-11T07:40:34.693Z,42.24
2022-10-11T07:43:26.811Z,41.75
2022-10-11T07:46:18.445Z,41.81
2022-10-11T07:49:14.013Z,41.83
2022-10-11T07:52:06.285Z,41.11
2022-10-11T07:55:16.205Z,41.26
2022-10-11T07:58:11.926Z,40.80
2022-10-11T08:01:12.412Z,40.51
2022-10-11T08:04:13.533Z,39.79
2022-10-11T08:07:24.489Z,38.35
2022-10-11T08:10:01.388Z,36.85
2022-10-11T08:13:05.539Z,34.47
2022-10-11T08:15:57.022Z,32.81
2022-10-11T08:18:57.037Z,31.81
2022-10-11T08:22:00.405Z,30.71
2022-10-11T08:24:54.911Z,29.31
2022-10-11T08:27:47.113Z,28.24
2022-10-11T08:30:38.981Z,26.72
2022-10-11T08:33:46.174Z,25.78
2022-10-11T08:36:24.268Z,24.75
2022-10-11T08:39:25.767Z,23.77
2022-10-11T08:42:56.910Z,24.16
2022-10-11T08:46:06.469Z,23.57
2022-10-11T08:49:00.868Z,22.88
2022-10-11T08:52:12.079Z,22.45
2022-10-11T08:55:19.367Z,21.08
2022-10-11T08:58:19.632Z,20.01
2022-10-11T09:01:27.343Z,19.26
2022-10-11T09:04:06.283Z,19.34
2022-10-11T09:07:04.890Z,19.08
2022-10-11T09:10:01.849Z,19.34
2022-10-11T09:12:40.614Z,18.64
2022-10-11T09:15:26.899Z,18.50
2022-10-11T09:18:06.899Z,17.75
2022-10-11T09:21:02.929Z,17.78
2022-10-11T09:24:08.571Z,17.33
2022-10-11T09:26:47.221Z,16.70
2022-10-11T09:29:37.780Z,16.69
2022-10-11T09:32:15.251Z,16.34
2022-10-11T09:34:43.576Z,15.39
2022-10-11T09:37:16.624Z,14.90
2022-10-11T09:39:59.451Z,14.77
2022-10-11T09:42:27.020Z,14.54
2022-10-11T09:44:55.273Z,14.57
2022-10-11T09:47:28.028Z,14.20
2022-10-11T09:50:14.307Z,14.69
2022-10-11T09:52:53.843Z,14.41
2022-10-11T09:55:33.612Z,14.18
2022-10-11T09:58:01.688Z,14.30
2022-10-11T10:00:33.679Z,13.89
2022-10-11T10:03:04.090Z,13.46
2022-10-11T10:05:38.560Z,13.26
2022-10-11T10:08:09.288Z,13.20
2022-10-11T10:10:42.965Z,12.96
2022-10-11T10:13:22.199Z,12.79
2022-10-11T10:15:56.595Z,12.62
2022-10-11T10:18:37.728Z,12.67
2022-10-11T10:21:10.370Z,12.30
2022-10-11T10:23:38.050Z,11.97
2022-10-11T10:26:19.013Z,12.24
2022-10-11T10:29:09.553Z,11.96
2022-10-11T10:31:55.403Z,11.63
2022-10-11T10:34:36.612Z,11.46
2022-10-11T10:37:26.503Z,11.45
2022-10-11T10:40:04.941Z,10.99
2022-10-11T10:42:33.251Z,10.61
2022-10-11T10:45:00.772Z,10.62
2022-10-11T10:47:55.660Z,10.35
2022-10-11T10:50:42.074Z,10.44
2022-10-11T10:53:19.390Z,11.29
2022-10-11T10:55:57.849Z,10.43
2022-10-11T10:58:31.151Z,10.88
2022-10-11T11:01:11.461Z,10.84
2022-10-11T11:04:05.497Z,11.22
2022-10-11T11:06:51.179Z,11.50
2022-10-11T11:09:56.296Z,11.55
2022-10-11T11:12:26.424Z,11.64
2022-10-11T11:15:08.741Z,12.21
2022-10-11T11:18:15.828Z,12.18
2022-10-11T11:21:35.863Z,11.99
2022-10-11T11:24:45.149Z,11.83
2022-10-11T11:27:31.044Z,11.54
2022-10-11T11:30:04.564Z,11.66
2022-10-11T11:32:48.131Z,12.38
2022-10-11T11:35:27.597Z,11.96
2022-10-11T11:38:06.543Z,12.47
2022-10-11T11:40:41.190Z,12.56
2022-10-11T11:43:22.177Z,13.28
2022-10-11T11:45:49.860Z,13.22
2022-10-11T11:48:24.872Z,13.62
2022-10-11T11:50:58.394Z,13.83
2022-10-11T11:53:45.427Z,14.27
2022-10-11T11:56:30.437Z,14.66
2022-10-11T11:59:16.889Z,14.29
2022-10-11T12:01:56.509Z,14.26
2022-10-11T12:04:32.370Z,15.15
2022-10-11T12:07:21.627Z,15.03
2022-10-11T12:09:54.531Z,15.20
2022-10-11T12:12:37.477Z,15.06
2022-10-11T12:15:26.951Z,15.13
2022-10-11T12:17:57.460Z,14.76
2022-10-11T12:20:27.890Z,15.07
2022-10-11T12:23:05.319Z,15.24
2022-10-11T12:25:38.183Z,16.29
2022-10-11T12:28:43.127Z,17.90
2022-10-11T12:31:26.275Z,19.26
2022-10-11T12:34:08.760Z,20.69
2022-10-11T12:36:40.741Z,21.53
2022-10-11T12:39:43.153Z,22.26
2022-10-11T12:42:26.792Z,22.86
2022-10-11T12:45:13.132Z,23.08
2022-10-11T12:47:49.502Z,23.12
2022-10-11T12:50:39.808Z,23.26
2022-10-11T12:53:17.738Z,24.05
2022-10-11T12:55:51.415Z,24.74
2022-10-11T12:58:29.485Z,25.67
2022-10-11T13:00:58.171Z,25.61
2022-10-11T13:03:29.770Z,26.26
2022-10-11T13:06:02.059Z,26.27
2022-10-11T13:08:34.674Z,27.23
2022-10-11T13:11:09.223Z,27.25
2022-10-11T13:13:44.127Z,27.54
2022-10-11T13:16:18.702Z,27.63
2022-10-11T13:18:50.011Z,28.24
2022-10-11T13:21:36.256Z,29.54
2022-10-11T13:24:10.965Z,29.90
2022-10-11T13:26:39.084Z,29.94
2022-10-11T13:29:18.661Z,31.59
2022-10-11T13:31:48.205Z,31.34
2022-10-11T13:34:19.712Z,31.40
2022-10-11T13:36:55.522Z,32.44
2022-10-11T13:39:31.196Z,32.84
2022-10-11T13:42:00.296Z,32.53
2022-10-11T13:44:28.095Z,32.99
2022-10-11T13:46:55.701Z,33.27
2022-10-11T13:49:40.412Z,33.40
2022-10-11T13:52:23.272Z,34.98
2022-10-11T13:55:02.954Z,34.90
2022-10-11T13:57:49.539Z,35.19
2022-10-11T14:00:19.894Z,34.84
2022-10-11T14:03:00.837Z,35.63
2022-10-11T14:05:41.502Z,35.16
2022-10-11T14:08:35.781Z,36.40
2022-10-11T14:11:06.486Z,35.44
2022-10-11T14:13:44.965Z,36.38
2022-10-11T14:16:20.501Z,36.11
2022-10-11T14:19:10.007Z,37.20
2022-10-11T14:21:45.339Z,36.19
2022-10-11T14:24:14.654Z,35.66
2022-10-11T14:26:49.628Z,35.73
2022-10-11T14:29:33.011Z,35.76
2022-10-11T14:32:06.701Z,35.98
2022-10-11T14:34:35.616Z,35.66
2022-10-11T14:37:03.302Z,36.07
2022-10-11T14:39:32.463Z,36.27
2022-10-11T14:42:00.659Z,36.31
2022-10-11T14:44:28.616Z,36.22
2022-10-11T14:46:56.076Z,36.42
2022-10-11T14:49:26.434Z,37.18
2022-10-11T14:51:55.614Z,37.03
2022-10-11T14:54:25.030Z,37.12
2022-10-11T14:56:54.945Z,37.61
2022-10-11T14:59:27.113Z,38.21
2022-10-11T15:01:54.835Z,38.19
2022-10-11T15:04:24.700Z,38.32
2022-10-11T15:06:53.959Z,38.60
2022-10-11T15:09:22.560Z,38.75
2022-10-11T15:11:51.716Z,38.46
2022-10-11T15:14:19.124Z,38.54
2022-10-11T15:16:46.563Z,39.04
2022-10-11T15:19:20.081Z,40.15
2022-10-11T15:21:47.891Z,39.46
2022-10-11T15:24:15.604Z,39.65
2022-10-11T15:26:44.077Z,39.66
2022-10-11T15:29:13.120Z,39.72
2022-10-11T15:31:40.672Z,40.00
2022-10-11T15:34:08.683Z,40.03
2022-10-11T15:36:36.141Z,40.27
2022-10-11T15:39:04.074Z,40.65
2022-10-11T15:41:31.525Z,40.71
2022-10-11T15:43:59.128Z,40.86
2022-10-11T15:46:28.752Z,41.12
2022-10-11T15:48:56.272Z,41.24
2022-10-11T15:51:23.695Z,41.10
2022-10-11T15:53:51.208Z,41.51
2022-10-11T15:56:19.776Z,41.66
2022-10-11T15:58:47.229Z,41.66
2022-10-11T16:01:20.206Z,43.11
2022-10-11T16:03:49.214Z,42.33
2022-10-11T16:06:18.024Z,42.57
2022-10-11T16:08:46.168Z,43.09
2022-10-11T16:11:13.980Z,43.93
2022-10-11T16:13:41.581Z,44.43
2022-10-11T16:16:10.462Z,45.28
2022-10-11T16:18:38.954Z,45.92
2022-10-11T16:21:09.618Z,47.03
2022-10-11T16:23:38.298Z,47.12
2022-10-11T16:26:09.224Z,48.36
2022-10-11T16:28:38.104Z,48.54
2022-10-11T16:31:20.948Z,50.68
2022-10-11T16:33:48.856Z,49.18
2022-10-11T16:36:32.088Z,50.21
2022-10-11T16:39:01.521Z,50.42
2022-10-11T16:41:29.057Z,50.38
2022-10-11T16:43:56.601Z,50.80
2022-10-11T16:46:24.647Z,50.86
2022-10-11T16:48:55.849Z,52.13
2022-10-11T16:51:24.421Z,51.49
2022-10-11T16:53:53.311Z,51.86
2022-10-11T16:56:22.732Z,51.97
2022-10-11T16:58:54.259Z,52.17
2022-10-11T17:01:22.769Z,52.32
2022-10-11T17:03:51.157Z,52.89
2022-10-11T17:06:19.625Z,53.25
2022-10-11T17:08:47.255Z,53.03
2022-10-11T17:11:16.800Z,53.24
2022-10-11T17:13:45.505Z,53.68
2022-10-11T17:16:13.028Z,53.77
2022-10-11T17:18:40.440Z,53.57
2022-10-11T17:21:12.224Z,54.41
2022-10-11T17:23:40.613Z,53.95
2022-10-11T17:26:11.601Z,54.30
2022-10-11T17:28:39.275Z,54.41
2022-10-11T17:31:08.430Z,54.64
2022-10-11T17:33:36.498Z,54.56
2022-10-11T17:36:13.973Z,56.33
2022-10-11T17:38:41.559Z,54.91
2022-10-11T17:41:10.227Z,54.91
2022-10-11T17:43:37.963Z,55.21
2022-10-11T17:46:06.477Z,55.33
2022-10-11T17:48:36.742Z,55.54
2022-10-11T17:51:11.967Z,56.37
2022-10-11T17:53:39.673Z,55.27
2022-10-11T17:56:12.243Z,55.23
2022-10-11T17:58:39.882Z,55.15
2022-10-11T18:01:10.391Z,55.61
2022-10-11T18:03:38.526Z,55.47
2022-10-11T18:06:11.833Z,56.43
2022-10-11T18:08:40.927Z,55.54
2022-10-11T18:11:14.302Z,56.47
2022-10-11T18:13:46.202Z,55.55
2022-10-11T18:16:15.454Z,55.63
2022-10-11T18:18:43.691Z,55.85
2022-10-11T18:21:11.271Z,55.81
2022-10-11T18:23:39.234Z,55.96
2022-10-11T18:26:14.749Z,57.00
2022-10-11T18:28:43.414Z,56.04
2022-10-11T18:31:14.709Z,56.61
2022-10-11T18:33:45.615Z,56.82
2022-10-11T18:36:15.804Z,56.74
2022-10-11T18:38:47.088Z,57.16
2022-10-11T18:41:17.114Z,57.17
2022-10-11T18:43:49.683Z,58.04
2022-10-11T18:46:17.749Z,57.08
2022-10-11T18:48:47.525Z,57.09
2022-10-11T18:51:18.627Z,57.74
2022-10-11T18:53:47.095Z,57.43
2022-10-11T18:56:16.441Z,57.89
2022-10-11T18:58:44.740Z,57.80
2022-10-11T19:01:16.068Z,57.81
2022-10-11T19:03:47.843Z,58.81
2022-10-11T19:06:21.552Z,59.39
2022-10-11T19:08:54.845Z,59.69
2022-10-11T19:11:25.414Z,58.85
2022-10-11T19:14:01.788Z,59.79
2022-10-11T19:16:30.294Z,59.26
2022-10-11T19:18:58.629Z,59.09
2022-10-11T19:21:26.862Z,59.08
2022-10-11T19:23:55.822Z,59.82
2022-10-11T19:26:27.533Z,59.92
2022-10-11T19:29:00.925Z,60.56
2022-10-11T19:31:29.263Z,60.34
2022-10-11T19:33:58.058Z,60.40
2022-10-11T19:36:26.444Z,60.48
2022-10-11T19:38:57.260Z,60.62
2022-10-11T19:41:26.238Z,60.88
2022-10-11T19:43:55.348Z,60.80
2022-10-11T19:46:44.503Z,60.94
2022-10-11T19:49:12.183Z,60.83
2022-10-11T19:51:39.685Z,60.96
2022-10-11T19:54:10.416Z,61.46
2022-10-11T19:56:38.036Z,61.23
2022-10-11T19:59:08.649Z,61.35
2022-10-11T20:01:37.143Z,61.93
2022-10-11T20:04:07.431Z,62.14
2022-10-11T20:06:38.583Z,62.06
2022-10-11T20:11:55.042Z,61.83
2022-10-11T20:14:22.674Z,62.07
2022-10-11T20:16:50.873Z,62.14
2022-10-11T20:19:18.892Z,62.47
2022-10-11T20:21:47.452Z,62.71
2022-10-11T20:24:15.614Z,62.76
2022-10-11T20:26:43.186Z,62.62
2022-10-11T20:29:10.800Z,62.98
2022-10-11T20:31:40.703Z,63.18
2022-10-11T20:34:10.136Z,63.55
2022-10-11T20:36:37.941Z,63.06
2022-10-11T20:39:06.433Z,63.34
2022-10-11T20:41:45.047Z,63.76
2022-10-11T20:44:15.870Z,63.37
2022-10-11T20:46:43.418Z,63.26
2022-10-11T20:49:12.502Z,63.76
2022-10-11T20:51:41.955Z,63.58
2022-10-11T20:54:12.072Z,63.80
2022-10-11T20:56:40.383Z,64.07
2022-10-11T20:59:08.509Z,64.21
2022-10-11T21:01:39.594Z,64.51
2022-10-11T21:04:10.513Z,64.19
2022-10-11T21:06:37.995Z,64.11
2022-10-11T21:09:05.440Z,64.48
2022-10-11T21:11:33.771Z,64.20
2022-10-11T21:14:04.606Z,64.70
2022-10-11T21:16:33.426Z,64.42
2022-10-11T21:19:01.988Z,64.79
2022-10-11T21:21:30.546Z,64.38
2022-10-11T21:24:02.302Z,65.66
2022-10-11T21:26:31.117Z,64.76
2022-10-11T21:29:01.384Z,64.74
2022-10-11T21:31:33.730Z,65.00
2022-10-11T21:34:02.485Z,65.19
2022-10-11T21:36:30.009Z,65.43
2022-10-11T21:38:57.766Z,64.86
2022-10-11T21:41:29.121Z,65.16
2022-10-11T21:43:56.873Z,65.33
2022-10-11T21:49:17.085Z,64.81
2022-10-11T21:51:45.265Z,65.05
2022-10-11T21:54:12.930Z,65.33
2022-10-11T21:56:40.605Z,65.12
2022-10-11T21:59:11.267Z,65.35
2022-10-11T22:01:41.880Z,65.49
2022-10-11T22:04:10.406Z,65.46
2022-10-11T22:06:38.894Z,65.48
2022-10-11T22:09:08.394Z,65.52
2022-10-11T22:11:36.387Z,65.63
2022-10-11T22:14:04.150Z,65.59
2022-10-11T22:16:33.755Z,65.99
2022-10-11T22:19:01.306Z,65.49
2022-10-11T22:21:28.883Z,65.75
2022-10-11T22:23:59.639Z,66.21
2022-10-11T22:26:30.929Z,66.11
2022-10-11T22:29:00.368Z,66.01
2022-10-11T22:31:29.429Z,66.34
2022-10-11T22:34:00.635Z,66.15
2022-10-11T22:36:30.654Z,66.43
2022-10-11T22:38:58.761Z,66.11
2022-10-11T22:41:26.453Z,66.01
2022-10-11T22:43:53.966Z,66.27
2022-10-11T22:46:21.385Z,66.46
2022-10-11T22:48:51.509Z,66.45
2022-10-11T22:51:21.402Z,66.26
2022-10-11T22:53:48.954Z,66.76
2022-10-11T22:56:16.437Z,66.37
2022-10-11T22:58:43.990Z,66.79
2022-10-11T23:01:13.871Z,67.22
2022-10-11T23:03:41.712Z,66.67
2022-10-11T23:06:09.643Z,67.07
2022-10-11T23:08:37.108Z,67.26
2022-10-11T23:11:06.899Z,67.67
2022-10-11T23:13:35.016Z,67.46
2022-10-11T23:16:07.257Z,68.30
2022-10-11T23:18:34.847Z,67.30
2022-10-11T23:21:02.914Z,67.75
2022-10-11T23:23:30.766Z,67.68
2022-10-11T23:26:06.724Z,69.09
2022-10-11T23:28:35.154Z,67.74
2022-10-11T23:31:14.386Z,69.16
2022-10-11T23:33:41.953Z,68.06
2022-10-11T23:36:21.296Z,69.17
2022-10-11T23:38:56.888Z,69.36
2022-10-11T23:41:26.937Z,68.15
2022-10-11T23:43:54.723Z,68.48
2022-10-11T23:46:22.566Z,68.14
2022-10-11T23:48:49.977Z,68.80
2022-10-11T23:51:17.440Z,68.31
2022-10-11T23:53:44.887Z,68.32
2022-10-11T23:56:12.695Z,68.39
2022-10-11T23:58:40.476Z,68.76
